Time;durP1;ratioP1;P1;durP2;ratioP2;P2;SDS_P1;SDS_P2;PMS_P1;PMS_P2;Temp;Humidity;BMP_temperature;BMP_pressure;BME280_temperature;BME280_humidity;BME280_pressure;Samples;Min_cycle;Max_cycle;Signal;HPM_P1;HPM_P2
2020/12/24 00:01:04;;;;;;;8.00;5.00;;;5.70;98.60;;;;;;5045864;28;20025;-67
2020/12/24 00:03:30;;;;;;;8.38;4.70;;;5.70;98.60;;;;;;5046946;28;20146;-67
2020/12/24 00:05:56;;;;;;;7.68;5.10;;;5.70;98.60;;;;;;5051708;28;20028;-67
2020/12/24 00:08:21;;;;;;;7.25;5.05;;;5.70;98.60;;;;;;5046934;28;20048;-66
2020/12/24 00:10:48;;;;;;;7.22;4.78;;;5.70;98.60;;;;;;5047002;28;20253;-66
2020/12/24 00:13:15;;;;;;;7.28;4.97;;;5.70;98.60;;;;;;5046803;28;20044;-67
2020/12/24 00:15:41;;;;;;;7.85;5.32;;;5.70;98.50;;;;;;5047409;28;20437;-66
2020/12/24 00:18:06;;;;;;;7.43;4.53;;;5.70;98.60;;;;;;5046421;28;20040;-67
2020/12/24 00:20:32;;;;;;;7.80;5.05;;;5.70;98.50;;;;;;5034884;28;20044;-67
2020/12/24 00:22:58;;;;;;;8.30;4.90;;;5.70;98.50;;;;;;5045846;28;20059;-67
2020/12/24 00:25:23;;;;;;;7.50;4.97;;;5.60;98.50;;;;;;5046844;28;20443;-66
2020/12/24 00:27:49;;;;;;;7.47;5.60;;;5.60;98.50;;;;;;5046854;28;20062;-67
2020/12/24 00:30:15;;;;;;;6.95;4.82;;;5.60;98.50;;;;;;5045982;28;20505;-66
2020/12/24 00:32:40;;;;;;;7.57;5.15;;;5.60;98.50;;;;;;5046022;28;20020;-66
2020/12/24 00:35:06;;;;;;;7.60;4.70;;;5.60;98.50;;;;;;5046996;28;20024;-66
2020/12/24 00:37:32;;;;;;;8.40;5.47;;;5.60;98.50;;;;;;5045242;28;20144;-67
2020/12/24 00:39:57;;;;;;;8.57;5.85;;;5.60;98.50;;;;;;5046107;28;20112;-67
2020/12/24 00:42:23;;;;;;;9.25;5.60;;;5.60;98.40;;;;;;5046415;28;20465;-67
2020/12/24 00:44:49;;;;;;;10.20;6.15;;;5.60;98.50;;;;;;5046317;28;20048;-67
2020/12/24 00:47:14;;;;;;;11.45;6.43;;;5.60;98.40;;;;;;5045805;28;20032;-68
2020/12/24 00:49:40;;;;;;;10.02;6.43;;;5.60;98.40;;;;;;5045873;28;20036;-66
2020/12/24 00:52:05;;;;;;;12.30;7.07;;;5.60;98.40;;;;;;5047113;28;20158;-66
2020/12/24 00:54:31;;;;;;;10.35;7.05;;;5.60;98.40;;;;;;5045652;28;20039;-67
2020/12/24 00:56:58;;;;;;;12.07;7.45;;;5.60;98.50;;;;;;5029477;28;20512;-67
2020/12/24 00:59:23;;;;;;;10.93;6.40;;;5.50;98.40;;;;;;5047498;28;20112;-67
2020/12/24 01:01:49;;;;;;;9.57;5.85;;;5.50;98.40;;;;;;5046624;28;20116;-67
2020/12/24 01:04:14;;;;;;;7.63;5.28;;;5.40;98.40;;;;;;5045243;28;20042;-66
2020/12/24 01:06:40;;;;;;;8.82;5.68;;;5.40;98.40;;;;;;5046322;28;20047;-67
2020/12/24 01:09:06;;;;;;;8.98;6.25;;;5.40;98.40;;;;;;5045940;28;20260;-67
2020/12/24 01:11:32;;;;;;;10.77;6.38;;;5.40;98.40;;;;;;5045952;28;20241;-66
2020/12/24 01:13:58;;;;;;;12.77;6.45;;;5.40;98.40;;;;;;5059385;28;20028;-66
2020/12/24 01:16:23;;;;;;;9.93;6.70;;;5.40;98.40;;;;;;5040892;28;20301;-66
2020/12/24 01:18:49;;;;;;;10.90;6.90;;;5.40;98.40;;;;;;5058394;28;20485;-66
2020/12/24 01:21:15;;;;;;;11.50;6.80;;;5.40;98.40;;;;;;5043674;28;20530;-66
2020/12/24 01:23:40;;;;;;;11.20;5.82;;;5.40;98.40;;;;;;5040162;28;20056;-67
2020/12/24 01:26:07;;;;;;;9.38;5.93;;;5.40;98.30;;;;;;5049155;28;20067;-68
2020/12/24 01:28:33;;;;;;;10.57;6.45;;;5.30;98.40;;;;;;5048938;28;20169;-66
2020/12/24 01:30:59;;;;;;;12.48;6.40;;;5.40;98.40;;;;;;5048046;28;20413;-67
2020/12/24 01:33:25;;;;;;;11.73;7.07;;;5.30;98.40;;;;;;5054989;28;20375;-66
2020/12/24 01:35:51;;;;;;;10.45;5.80;;;5.30;98.40;;;;;;5048777;28;20036;-66
2020/12/24 01:38:17;;;;;;;11.18;6.50;;;5.30;98.40;;;;;;5047048;28;20203;-65
2020/12/24 01:40:42;;;;;;;11.35;6.82;;;5.30;98.40;;;;;;5059465;28;20033;-67
2020/12/24 01:43:08;;;;;;;10.35;6.03;;;5.30;98.40;;;;;;5057420;28;20033;-66
2020/12/24 01:45:33;;;;;;;14.10;7.10;;;5.30;98.40;;;;;;5065348;28;20033;-67
2020/12/24 01:47:59;;;;;;;12.65;6.60;;;5.30;98.40;;;;;;5048670;28;20032;-66
2020/12/24 01:50:26;;;;;;;12.20;5.97;;;5.30;98.40;;;;;;5066482;28;20025;-66
2020/12/24 01:52:52;;;;;;;13.88;6.72;;;5.20;98.30;;;;;;5062513;28;20436;-66
2020/12/24 01:55:18;;;;;;;10.13;5.55;;;5.20;98.30;;;;;;5066568;28;20438;-66
2020/12/24 01:57:44;;;;;;;9.77;6.10;;;5.20;98.30;;;;;;5060910;28;20082;-66
2020/12/24 02:00:11;;;;;;;10.02;5.88;;;5.10;98.30;;;;;;5062932;28;20020;-66
2020/12/24 02:02:36;;;;;;;10.57;5.38;;;5.10;98.30;;;;;;5052698;28;20324;-67
2020/12/24 02:05:04;;;;;;;12.05;6.68;;;5.10;98.30;;;;;;5050243;28;20094;-66
2020/12/24 02:07:29;;;;;;;13.05;6.53;;;5.10;98.30;;;;;;5064898;28;20021;-67
2020/12/24 02:09:55;;;;;;;10.93;5.70;;;5.10;98.30;;;;;;5064656;28;20118;-66
2020/12/24 02:12:21;;;;;;;10.93;6.47;;;5.00;98.30;;;;;;5061823;28;20083;-67
2020/12/24 02:14:47;;;;;;;15.73;5.53;;;5.10;98.30;;;;;;5052274;28;20525;-66
2020/12/24 02:17:13;;;;;;;7.82;4.32;;;5.10;98.30;;;;;;5051985;28;20345;-66
2020/12/24 02:19:42;;;;;;;7.90;3.83;;;5.00;98.20;;;;;;5067366;28;20040;-65
2020/12/24 02:22:09;;;;;;;7.18;3.70;;;5.00;98.20;;;;;;5056862;28;20102;-66
2020/12/24 02:24:36;;;;;;;6.68;4.50;;;5.00;98.20;;;;;;5036423;28;20090;-66
2020/12/24 02:27:03;;;;;;;6.70;3.20;;;5.00;98.20;;;;;;5055380;28;20280;-66
2020/12/24 02:29:29;;;;;;;6.05;2.85;;;5.00;98.10;;;;;;5050560;28;20025;-65
2020/12/24 02:31:54;;;;;;;5.07;2.33;;;5.00;98.20;;;;;;5060209;28;20025;-66
2020/12/24 02:34:20;;;;;;;4.25;2.08;;;5.00;98.20;;;;;;5050901;28;20029;-65
2020/12/24 02:36:45;;;;;;;3.45;2.05;;;4.90;98.10;;;;;;5059843;28;20531;-66
2020/12/24 02:39:11;;;;;;;3.60;2.10;;;4.80;98.10;;;;;;5032253;28;20033;-66
2020/12/24 02:41:37;;;;;;;4.40;2.50;;;4.80;98.10;;;;;;5056538;28;20136;-65
2020/12/24 02:44:03;;;;;;;5.97;2.72;;;4.80;98.10;;;;;;5056452;28;20294;-67
2020/12/24 02:46:28;;;;;;;5.38;3.10;;;4.80;98.10;;;;;;5050293;28;20025;-66
2020/12/24 02:48:54;;;;;;;7.97;3.70;;;4.80;98.10;;;;;;5047686;28;20063;-66
2020/12/24 02:51:20;;;;;;;10.15;4.43;;;4.80;98.10;;;;;;5052472;28;20028;-66
2020/12/24 02:53:46;;;;;;;8.60;4.55;;;4.80;98.00;;;;;;5059376;28;20044;-65
2020/12/24 02:56:11;;;;;;;8.90;4.55;;;4.80;98.10;;;;;;5064425;28;20041;-65
2020/12/24 02:58:37;;;;;;;6.22;2.83;;;4.80;98.10;;;;;;5058758;28;20493;-65
2020/12/24 03:01:02;;;;;;;4.60;2.40;;;4.70;98.00;;;;;;5067526;28;20027;-66
2020/12/24 03:03:28;;;;;;;4.60;2.40;;;4.70;98.00;;;;;;5063058;28;20116;-67
2020/12/24 03:05:54;;;;;;;5.15;2.50;;;4.70;98.10;;;;;;5055186;28;20047;-66
2020/12/24 03:08:20;;;;;;;5.05;2.10;;;4.70;98.10;;;;;;5044807;28;20036;-65
2020/12/24 03:10:46;;;;;;;4.05;2.28;;;4.70;98.10;;;;;;5049284;28;20106;-66
2020/12/24 03:13:12;;;;;;;3.85;1.70;;;4.60;98.10;;;;;;5051106;28;20036;-66
2020/12/24 03:15:38;;;;;;;3.95;2.35;;;4.60;98.00;;;;;;5061563;28;20104;-65
2020/12/24 03:18:03;;;;;;;6.00;2.17;;;4.60;98.00;;;;;;5065598;28;20401;-65
2020/12/24 03:20:29;;;;;;;5.18;2.60;;;4.60;98.00;;;;;;5064536;28;20170;-66
2020/12/24 03:22:54;;;;;;;5.78;2.55;;;4.60;98.00;;;;;;5057090;28;20077;-66
2020/12/24 03:25:20;;;;;;;4.40;2.40;;;4.60;98.10;;;;;;5051891;28;20036;-65
2020/12/24 03:27:45;;;;;;;3.70;2.22;;;4.60;98.10;;;;;;5055779;28;20036;-67
2020/12/24 03:30:11;;;;;;;6.85;2.58;;;4.60;98.00;;;;;;5067598;28;20024;-65
2020/12/24 03:32:37;;;;;;;8.60;3.05;;;4.60;98.10;;;;;;5058507;28;20017;-65
2020/12/24 03:35:04;;;;;;;6.55;3.08;;;4.60;98.10;;;;;;5065429;28;20190;-66
2020/12/24 03:37:29;;;;;;;6.80;2.45;;;4.60;98.10;;;;;;5066459;28;20107;-65
2020/12/24 03:39:55;;;;;;;4.30;2.42;;;4.50;98.00;;;;;;5083431;28;20059;-65
2020/12/24 03:42:21;;;;;;;5.03;2.70;;;4.50;98.00;;;;;;5060591;28;20028;-66
2020/12/24 03:44:46;;;;;;;5.05;2.63;;;4.50;98.10;;;;;;5049763;28;20086;-67
2020/12/24 03:47:12;;;;;;;3.85;2.30;;;4.40;98.00;;;;;;5051897;28;20270;-65
2020/12/24 03:49:37;;;;;;;6.28;2.90;;;4.50;98.00;;;;;;5060579;28;20642;-66
2020/12/24 03:52:03;;;;;;;7.78;3.05;;;4.50;98.10;;;;;;5059147;28;20025;-65
2020/12/24 03:54:29;;;;;;;5.75;3.58;;;4.50;98.00;;;;;;5054018;28;20116;-65
2020/12/24 03:56:54;;;;;;;7.72;4.47;;;4.40;98.00;;;;;;5053784;28;20036;-66
2020/12/24 03:59:20;;;;;;;10.77;4.65;;;4.40;98.00;;;;;;5049974;28;20487;-65
2020/12/24 04:01:45;;;;;;;11.32;5.00;;;4.40;98.00;;;;;;5073133;28;20080;-67
2020/12/24 04:04:11;;;;;;;9.57;4.57;;;4.40;98.00;;;;;;5048273;28;20271;-66
2020/12/24 04:06:36;;;;;;;9.38;4.45;;;4.40;98.00;;;;;;5052139;28;20384;-66
2020/12/24 04:09:03;;;;;;;8.20;5.15;;;4.40;98.00;;;;;;5050203;28;20036;-66
2020/12/24 04:11:29;;;;;;;9.15;5.25;;;4.40;98.00;;;;;;5050529;28;20043;-65
2020/12/24 04:13:54;;;;;;;8.18;4.47;;;4.30;97.90;;;;;;5067123;28;20016;-66
2020/12/24 04:16:21;;;;;;;7.78;4.03;;;4.30;97.90;;;;;;5050247;28;20033;-66
2020/12/24 04:18:47;;;;;;;6.95;3.70;;;4.20;97.90;;;;;;5061150;28;20065;-66
2020/12/24 04:21:12;;;;;;;7.13;3.65;;;4.20;98.00;;;;;;5064909;28;20488;-65
2020/12/24 04:23:38;;;;;;;6.00;3.35;;;4.20;98.00;;;;;;5065768;28;20146;-67
2020/12/24 04:26:03;;;;;;;5.45;3.35;;;4.20;98.00;;;;;;5054499;28;20029;-66
2020/12/24 04:28:29;;;;;;;5.38;2.85;;;4.20;97.90;;;;;;5068820;28;20481;-68
2020/12/24 04:30:55;;;;;;;3.70;2.22;;;4.20;98.00;;;;;;5047557;28;20079;-66
2020/12/24 04:33:20;;;;;;;2.88;1.90;;;4.10;97.90;;;;;;5055502;28;20112;-66
2020/12/24 04:35:46;;;;;;;4.38;2.00;;;4.10;97.90;;;;;;5052245;28;20400;-66
2020/12/24 04:38:11;;;;;;;2.60;1.80;;;4.00;97.80;;;;;;5047358;28;20025;-65
2020/12/24 04:40:37;;;;;;;4.30;2.00;;;3.90;97.70;;;;;;5028053;28;20040;-66
2020/12/24 04:43:04;;;;;;;2.67;1.90;;;3.90;97.80;;;;;;5045811;28;20195;-66
2020/12/24 04:45:32;;;;;;;2.08;1.55;;;3.90;97.70;;;;;;5047982;28;20427;-67
2020/12/24 04:47:58;;;;;;;3.20;1.50;;;3.90;97.80;;;;;;5045999;28;20112;-66
2020/12/24 04:50:29;;;;;;;2.08;1.40;;;3.80;97.80;;;;;;5046280;28;20064;-65
2020/12/24 04:52:55;;;;;;;1.77;1.20;;;3.80;97.70;;;;;;5062481;28;20048;-65
2020/12/24 04:55:22;;;;;;;1.83;1.25;;;3.70;97.60;;;;;;5056719;28;20519;-66
2020/12/24 04:57:50;;;;;;;2.30;1.33;;;3.60;97.50;;;;;;5059894;28;20030;-66
2020/12/24 05:00:20;;;;;;;3.40;1.33;;;3.60;97.50;;;;;;5072664;28;20029;-66
2020/12/24 05:03:06;;;;;;;1.38;1.10;;;3.50;97.30;;;;;;5075088;28;20186;-66
2020/12/24 05:05:33;;;;;;;1.67;0.90;;;3.40;97.10;;;;;;5050036;28;20032;-67
2020/12/24 05:08:03;;;;;;;2.13;0.93;;;3.40;97.00;;;;;;5055384;28;20033;-66
2020/12/24 05:10:29;;;;;;;3.40;1.17;;;3.30;97.00;;;;;;5063063;28;20037;-65
2020/12/24 05:12:55;;;;;;;1.60;1.05;;;3.30;97.10;;;;;;5065224;28;20453;-65
2020/12/24 05:15:29;;;;;;;2.67;0.80;;;3.30;97.10;;;;;;5069387;28;20085;-65
2020/12/24 05:18:19;;;;;;;1.10;0.77;;;3.20;97.10;;;;;;5055047;28;20450;-65
2020/12/24 05:20:45;;;;;;;1.15;0.80;;;3.10;97.20;;;;;;5050872;28;20147;-67
2020/12/24 05:23:19;;;;;;;1.02;0.93;;;3.00;97.20;;;;;;5048810;28;20508;-66
2020/12/24 05:25:46;;;;;;;1.63;1.30;;;2.90;96.90;;;;;;5063800;28;20152;-65
2020/12/24 05:28:28;;;;;;;2.15;1.10;;;2.80;96.90;;;;;;5057843;28;20363;-66
2020/12/24 05:30:55;;;;;;;1.02;0.90;;;2.70;96.70;;;;;;5060596;28;20115;-66
2020/12/24 05:33:31;;;;;;;2.88;1.05;;;2.60;96.80;;;;;;5067348;28;20043;-68
2020/12/24 05:36:17;;;;;;;1.13;0.80;;;2.40;96.30;;;;;;5055272;28;20184;-68
2020/12/24 05:38:43;;;;;;;1.50;1.00;;;2.20;96.40;;;;;;5067581;28;20048;-68
2020/12/24 05:41:31;;;;;;;1.60;1.30;;;2.10;96.50;;;;;;5065825;28;20625;-68
2020/12/24 05:44:02;;;;;;;2.63;1.83;;;2.00;96.70;;;;;;5067174;28;20032;-68
2020/12/24 05:46:37;;;;;;;2.90;1.77;;;1.90;96.80;;;;;;5056633;28;20400;-69
2020/12/24 05:49:21;;;;;;;3.05;1.85;;;1.80;96.90;;;;;;5061952;28;20660;-68
2020/12/24 05:51:51;;;;;;;2.65;1.80;;;1.80;97.00;;;;;;5074704;28;20093;-68
2020/12/24 05:54:17;;;;;;;2.85;1.85;;;1.70;96.90;;;;;;5050258;28;20032;-67
2020/12/24 05:56:44;;;;;;;2.88;1.80;;;1.70;97.10;;;;;;5047916;28;20037;-69
2020/12/24 05:59:15;;;;;;;3.30;2.20;;;1.70;97.20;;;;;;5063706;28;20029;-68
2020/12/24 06:01:40;;;;;;;;;;;1.70;97.20;;;;;;5065307;28;20036;-69
2020/12/24 06:04:09;;;;;;;5.18;2.38;;;1.70;97.30;;;;;;5051092;28;19909;-68
2020/12/24 06:06:45;;;;;;;2.78;1.75;;;1.70;97.30;;;;;;5047547;28;20527;-68
2020/12/24 06:09:13;;;;;;;2.58;1.70;;;1.60;97.30;;;;;;5052061;28;20114;-68
2020/12/24 06:11:51;;;;;;;2.17;1.52;;;1.60;97.30;;;;;;5057884;28;20586;-68
2020/12/24 06:14:26;;;;;;;2.55;1.60;;;1.60;97.40;;;;;;5064243;28;20254;-68
2020/12/24 06:16:54;;;;;;;3.22;1.92;;;1.70;97.50;;;;;;5064353;28;20059;-70
2020/12/24 06:19:21;;;;;;;4.40;2.70;;;1.70;97.50;;;;;;5061709;28;20040;-69
2020/12/24 06:21:47;;;;;;;4.15;2.50;;;1.70;97.50;;;;;;5058432;28;20115;-68
2020/12/24 06:24:13;;;;;;;3.65;2.10;;;1.80;97.60;;;;;;5050364;28;20036;-68
2020/12/24 06:26:45;;;;;;;3.00;1.90;;;1.80;97.60;;;;;;5060192;28;20089;-68
2020/12/24 06:29:15;;;;;;;3.70;1.92;;;1.80;97.60;;;;;;5068302;28;20518;-68
2020/12/24 06:31:43;;;;;;;4.50;1.73;;;1.90;97.60;;;;;;5064220;28;20025;-69
2020/12/24 06:34:26;;;;;;;4.50;1.80;;;1.80;97.60;;;;;;5051284;28;20017;-69
2020/12/24 06:36:52;;;;;;;2.70;1.40;;;1.80;97.50;;;;;;5060627;28;20052;-68
2020/12/24 06:39:44;;;;;;;2.85;1.77;;;1.80;97.40;;;;;;5051250;28;20073;-69
2020/12/24 06:42:35;;;;;;;4.07;1.88;;;1.80;97.50;;;;;;5059398;28;20032;-68
2020/12/24 06:45:12;;;;;;;4.60;2.13;;;1.80;97.50;;;;;;5041333;28;20244;-65
2020/12/24 06:47:38;;;;;;;4.32;2.33;;;1.80;97.50;;;;;;5049689;28;20036;-66
2020/12/24 06:50:32;;;;;;;6.20;2.60;;;1.90;97.60;;;;;;5067037;28;20607;-65
2020/12/24 06:53:18;;;;;;;6.18;2.78;;;2.00;97.70;;;;;;5052377;28;20303;-66
2020/12/24 06:55:44;;;;;;;6.00;2.92;;;2.00;97.70;;;;;;5056222;28;20025;-65
2020/12/24 06:58:39;;;;;;;6.63;3.22;;;2.10;97.80;;;;;;5064938;28;20032;-68
2020/12/24 07:01:04;;;;;;;5.40;2.67;;;2.20;97.80;;;;;;5060043;28;20032;-66
2020/12/24 07:03:30;;;;;;;5.57;2.92;;;2.10;97.80;;;;;;5067843;28;20403;-65
2020/12/24 07:05:56;;;;;;;5.05;2.53;;;2.20;97.80;;;;;;5064038;28;20024;-66
2020/12/24 07:08:34;;;;;;;8.10;2.78;;;2.20;97.80;;;;;;5047614;28;20029;-65
2020/12/24 07:11:01;;;;;;;4.78;2.47;;;2.20;97.80;;;;;;5054207;28;20043;-66
2020/12/24 07:13:35;;;;;;;6.32;2.30;;;2.20;97.80;;;;;;5064311;28;20065;-65
2020/12/24 07:16:06;;;;;;;4.05;2.00;;;2.20;97.60;;;;;;5034079;28;20111;-66
2020/12/24 07:18:34;;;;;;;3.30;2.20;;;2.20;97.50;;;;;;5061687;28;20033;-67
2020/12/24 07:21:02;;;;;;;3.35;2.00;;;2.20;97.60;;;;;;5047593;28;20040;-67
2020/12/24 07:23:33;;;;;;;3.35;1.95;;;2.20;97.50;;;;;;5047222;28;20121;-66
2020/12/24 07:26:00;;;;;;;4.47;2.08;;;2.30;97.60;;;;;;5046259;28;20090;-65
2020/12/24 07:28:31;;;;;;;5.00;2.30;;;2.30;97.60;;;;;;5046656;28;20033;-66
2020/12/24 07:30:59;;;;;;;5.07;2.58;;;2.30;97.60;;;;;;5044149;28;20029;-66
2020/12/24 07:33:26;;;;;;;5.45;2.35;;;2.30;97.60;;;;;;5044910;28;20124;-66
2020/12/24 07:35:52;;;;;;;4.68;2.40;;;2.40;97.70;;;;;;5045073;28;20051;-66
2020/12/24 07:38:29;;;;;;;6.55;2.45;;;2.40;97.70;;;;;;5032524;28;20140;-67
2020/12/24 07:40:56;;;;;;;5.40;2.42;;;2.40;97.70;;;;;;5045314;28;20265;-66
2020/12/24 07:43:24;;;;;;;4.97;2.30;;;2.50;97.80;;;;;;5045643;28;20025;-67
2020/12/24 07:45:50;;;;;;;9.02;3.42;;;2.60;97.80;;;;;;5044878;28;20103;-66
2020/12/24 07:48:17;;;;;;;9.75;3.25;;;2.60;97.80;;;;;;5032305;28;20028;-66
2020/12/24 07:50:44;;;;;;;9.98;4.00;;;2.70;97.90;;;;;;5043679;28;20475;-66
2020/12/24 07:53:10;;;;;;;10.98;3.67;;;2.70;97.90;;;;;;5043633;28;20039;-67
2020/12/24 07:55:36;;;;;;;10.00;4.50;;;2.80;97.90;;;;;;5042843;28;20512;-66
2020/12/24 07:58:09;;;;;;;14.75;4.15;;;2.80;97.90;;;;;;5050165;28;20040;-65
2020/12/24 08:00:40;;;;;;;10.93;4.10;;;2.90;97.80;;;;;;5068522;28;20135;-66
2020/12/24 08:03:06;;;;;;;10.07;3.60;;;3.00;97.70;;;;;;5047684;28;20036;-67
2020/12/24 08:05:32;;;;;;;14.70;4.53;;;3.00;97.70;;;;;;5049332;28;20029;-66
2020/12/24 08:07:57;;;;;;;10.65;4.20;;;3.00;97.60;;;;;;5048959;28;20101;-65
2020/12/24 08:10:23;;;;;;;12.35;4.00;;;3.10;97.60;;;;;;5060122;28;20505;-65
2020/12/24 08:12:49;;;;;;;10.73;4.10;;;3.10;97.60;;;;;;5046583;28;20029;-66
2020/12/24 08:15:20;;;;;;;10.20;3.90;;;3.10;97.60;;;;;;5058218;28;20437;-66
2020/12/24 08:17:55;;;;;;;;;;;3.10;97.50;;;;;;5052264;28;20444;-66
2020/12/24 08:20:23;;;;;;;9.75;3.33;;;3.20;97.40;;;;;;5055556;28;19919;-66
2020/12/24 08:22:59;;;;;;;11.43;4.18;;;3.20;97.30;;;;;;5050165;28;20066;-66
2020/12/24 08:25:25;;;;;;;10.98;4.35;;;3.30;97.10;;;;;;5041317;28;20053;-65
2020/12/24 08:27:51;;;;;;;14.95;4.40;;;3.20;97.10;;;;;;5027828;28;20088;-66
2020/12/24 08:30:17;;;;;;;11.18;4.47;;;3.30;97.10;;;;;;5026960;28;20029;-66
2020/12/24 08:32:43;;;;;;;7.45;3.47;;;3.30;97.30;;;;;;5036334;28;20017;-66
2020/12/24 08:35:14;;;;;;;7.90;3.17;;;3.30;97.20;;;;;;5038408;28;20458;-66
2020/12/24 08:37:40;;;;;;;8.05;3.08;;;3.30;97.00;;;;;;5026305;28;20029;-66
2020/12/24 08:40:21;;;;;;;5.68;2.75;;;3.40;97.00;;;;;;5039055;28;20032;-65
2020/12/24 08:42:48;;;;;;;7.78;2.55;;;3.30;96.70;;;;;;5037292;28;20040;-66
2020/12/24 08:45:14;;;;;;;5.25;2.95;;;3.30;96.60;;;;;;5029193;28;20113;-66
2020/12/24 08:47:40;;;;;;;6.45;2.72;;;3.40;96.70;;;;;;5040203;28;20234;-66
2020/12/24 08:50:06;;;;;;;8.38;3.00;;;3.40;96.80;;;;;;5045610;28;20032;-66
2020/12/24 08:52:43;;;;;;;6.38;2.67;;;3.40;96.90;;;;;;5042013;28;20120;-65
2020/12/24 08:55:09;;;;;;;9.02;2.60;;;3.40;96.80;;;;;;5026164;28;20033;-65
2020/12/24 08:57:36;;;;;;;7.50;2.55;;;3.40;96.80;;;;;;5033992;28;20031;-66
2020/12/24 09:00:07;;;;;;;7.18;2.63;;;3.40;96.80;;;;;;5026686;28;20117;-66
2020/12/24 09:02:35;;;;;;;7.10;2.78;;;3.40;96.90;;;;;;5030996;28;20540;-66
2020/12/24 09:05:03;;;;;;;6.20;2.70;;;3.40;96.70;;;;;;5031020;28;20029;-66
2020/12/24 09:07:40;;;;;;;8.55;3.50;;;3.40;96.80;;;;;;5032015;28;20036;-66
2020/12/24 09:10:07;;;;;;;6.13;3.25;;;3.40;96.70;;;;;;5044636;28;20412;-65
2020/12/24 09:12:34;;;;;;;7.15;3.13;;;3.40;96.80;;;;;;5041480;28;20017;-66
2020/12/24 09:15:02;;;;;;;7.78;3.20;;;3.40;96.80;;;;;;5037640;28;20033;-66
2020/12/24 09:17:28;;;;;;;7.22;3.38;;;3.40;96.70;;;;;;5029828;28;20029;-66
2020/12/24 09:20:24;;;;;;;7.05;2.97;;;3.40;96.80;;;;;;5031116;28;20041;-66
2020/12/24 09:22:53;;;;;;;8.45;3.40;;;3.50;96.80;;;;;;5041520;28;20571;-65
2020/12/24 09:25:38;;;;;;;10.43;4.03;;;3.50;96.80;;;;;;5045549;28;20124;-66
2020/12/24 09:28:16;;;;;;;7.85;4.20;;;3.50;96.80;;;;;;5030666;28;20082;-66
2020/12/24 09:30:42;;;;;;;10.43;4.28;;;3.50;96.90;;;;;;5040055;28;20066;-65
2020/12/24 09:33:08;;;;;;;8.23;3.97;;;3.50;96.90;;;;;;5029505;28;20293;-66
2020/12/24 09:35:33;;;;;;;8.10;4.53;;;3.50;96.90;;;;;;5034703;28;20423;-66
2020/12/24 09:37:59;;;;;;;9.70;4.55;;;3.50;96.80;;;;;;5031135;28;20039;-66
2020/12/24 09:40:25;;;;;;;12.10;4.32;;;3.50;96.90;;;;;;5030284;28;20025;-66
2020/12/24 09:42:50;;;;;;;10.25;5.13;;;3.60;97.00;;;;;;5036953;28;20419;-68
2020/12/24 09:45:16;;;;;;;9.75;4.63;;;3.60;97.00;;;;;;5028582;28;20017;-66
2020/12/24 09:47:46;;;;;;;9.48;4.78;;;3.70;97.00;;;;;;5035697;28;20115;-67
2020/12/24 09:50:12;;;;;;;9.55;4.22;;;3.80;97.00;;;;;;5044676;28;20024;-66
2020/12/24 09:52:37;;;;;;;8.38;4.45;;;3.80;96.90;;;;;;5044572;28;20070;-66
2020/12/24 09:55:04;;;;;;;8.18;4.55;;;3.70;96.80;;;;;;5031434;28;20573;-65
2020/12/24 09:57:31;;;;;;;7.78;3.85;;;3.80;96.70;;;;;;5047453;28;20033;-66
2020/12/24 09:59:57;;;;;;;8.18;3.95;;;3.80;96.70;;;;;;5048585;28;20020;-66
2020/12/24 10:02:23;;;;;;;9.02;4.43;;;3.80;96.80;;;;;;5046158;28;20098;-66
2020/12/24 10:04:48;;;;;;;7.80;3.90;;;3.90;96.90;;;;;;5046022;28;20344;-67
2020/12/24 10:07:14;;;;;;;7.53;3.63;;;3.90;96.80;;;;;;5037080;28;20074;-65
2020/12/24 10:09:40;;;;;;;5.88;3.25;;;3.90;96.30;;;;;;5029243;28;20124;-66
2020/12/24 10:12:05;;;;;;;5.53;3.20;;;4.00;96.60;;;;;;5011339;28;20104;-66
2020/12/24 10:14:31;;;;;;;7.10;3.20;;;4.00;96.40;;;;;;5037375;28;20500;-66
2020/12/24 10:16:56;;;;;;;5.82;2.53;;;4.00;96.50;;;;;;5043189;28;20433;-65
2020/12/24 10:19:22;;;;;;;5.63;2.90;;;3.90;96.40;;;;;;5029034;28;20041;-67
2020/12/24 10:21:48;;;;;;;7.93;3.30;;;3.90;96.30;;;;;;5028414;28;20030;-65
2020/12/24 10:24:14;;;;;;;7.00;3.40;;;4.00;96.40;;;;;;5038845;28;20040;-66
2020/12/24 10:26:39;;;;;;;8.15;3.42;;;4.00;96.50;;;;;;5028498;28;20037;-67
2020/12/24 10:29:05;;;;;;;6.82;3.40;;;4.10;96.20;;;;;;5039397;28;20382;-66
2020/12/24 10:31:31;;;;;;;6.90;3.42;;;4.00;96.20;;;;;;5048126;28;20056;-68
2020/12/24 10:33:56;;;;;;;8.63;3.53;;;4.10;96.30;;;;;;5045610;28;20029;-65
2020/12/24 10:36:23;;;;;;;6.32;3.15;;;4.10;96.60;;;;;;5040059;28;20099;-66
2020/12/24 10:38:49;;;;;;;6.78;3.35;;;4.10;96.60;;;;;;5022028;28;20033;-66
2020/12/24 10:41:16;;;;;;;9.45;3.55;;;4.20;96.70;;;;;;5033247;28;20024;-66
2020/12/24 10:43:42;;;;;;;8.38;3.65;;;4.20;96.70;;;;;;5033152;28;20389;-67
2020/12/24 10:46:08;;;;;;;10.40;4.55;;;4.10;96.30;;;;;;5027923;28;20095;-66
2020/12/24 10:48:33;;;;;;;9.25;4.20;;;4.10;96.60;;;;;;5035187;28;20040;-66
2020/12/24 10:50:59;;;;;;;9.60;4.60;;;4.20;96.70;;;;;;5034748;28;20029;-66
2020/12/24 10:53:24;;;;;;;12.38;4.78;;;4.10;96.60;;;;;;5033746;28;20170;-66
2020/12/24 10:55:50;;;;;;;9.52;4.65;;;4.10;96.60;;;;;;5039285;28;20044;-67
2020/12/24 10:58:16;;;;;;;10.68;5.07;;;4.10;96.70;;;;;;5028865;28;20055;-65
2020/12/24 11:00:41;;;;;;;17.15;6.50;;;4.20;97.00;;;;;;5034173;28;20041;-67
2020/12/24 11:03:07;;;;;;;14.38;5.57;;;4.30;97.00;;;;;;5036243;28;20112;-66
2020/12/24 11:05:32;;;;;;;13.80;6.18;;;4.30;97.00;;;;;;5041733;28;20123;-66
2020/12/24 11:07:58;;;;;;;20.33;7.43;;;4.20;96.80;;;;;;5033965;28;20026;-66
2020/12/24 11:10:24;;;;;;;13.25;6.43;;;4.30;96.90;;;;;;5032346;28;20033;-67
2020/12/24 11:12:49;;;;;;;14.70;6.72;;;4.30;96.90;;;;;;5036510;28;20033;-66
2020/12/24 11:15:15;;;;;;;15.50;7.32;;;4.30;96.90;;;;;;5042251;28;20044;-66
2020/12/24 11:17:41;;;;;;;14.60;6.93;;;4.40;97.00;;;;;;5044848;28;20052;-66
2020/12/24 11:20:06;;;;;;;18.35;7.35;;;4.40;96.90;;;;;;5046188;28;20029;-68
2020/12/24 11:22:32;;;;;;;20.15;7.05;;;4.40;97.00;;;;;;5045732;28;20041;-66
2020/12/24 11:24:58;;;;;;;18.90;7.15;;;4.40;97.00;;;;;;5028710;28;20509;-66
2020/12/24 11:27:24;;;;;;;16.30;6.93;;;4.40;97.00;;;;;;5036818;28;20036;-66
2020/12/24 11:29:49;;;;;;;19.52;6.47;;;4.40;97.00;;;;;;5038493;28;20029;-66
2020/12/24 11:32:15;;;;;;;15.82;5.93;;;4.60;97.00;;;;;;5041589;28;20445;-66
2020/12/24 11:34:40;;;;;;;14.65;5.95;;;4.50;96.70;;;;;;5043340;28;20029;-67
2020/12/24 11:37:06;;;;;;;13.70;5.90;;;4.50;97.00;;;;;;5044220;28;20044;-66
2020/12/24 11:39:32;;;;;;;15.63;6.43;;;4.50;96.70;;;;;;5039887;28;20175;-66
2020/12/24 11:41:58;;;;;;;18.63;9.25;;;4.60;96.80;;;;;;5042199;28;20104;-66
2020/12/24 11:44:24;;;;;;;21.77;8.20;;;4.60;96.90;;;;;;5041358;28;20469;-66
2020/12/24 11:46:50;;;;;;;13.18;6.10;;;4.60;96.90;;;;;;5035885;28;20038;-66
2020/12/24 11:49:15;;;;;;;17.73;6.22;;;4.60;96.80;;;;;;5031997;28;20104;-67
2020/12/24 11:51:41;;;;;;;17.63;5.78;;;4.70;96.70;;;;;;5034379;28;20026;-66
2020/12/24 11:54:06;;;;;;;12.93;5.40;;;4.70;96.70;;;;;;5026763;28;20418;-66
2020/12/24 11:56:32;;;;;;;17.17;7.07;;;4.70;96.60;;;;;;5043372;28;20029;-66
2020/12/24 11:58:58;;;;;;;11.95;5.63;;;4.70;96.40;;;;;;5028888;28;20025;-66
2020/12/24 12:01:24;;;;;;;9.60;5.55;;;4.80;96.50;;;;;;5030391;28;20029;-66
2020/12/24 12:03:53;;;;;;;14.18;6.75;;;4.90;96.60;;;;;;5031498;28;20056;-66
2020/12/24 12:06:20;;;;;;;14.35;6.05;;;4.90;96.50;;;;;;5035026;28;20023;-66
2020/12/24 12:08:46;;;;;;;11.57;5.60;;;4.90;96.50;;;;;;5032132;28;20414;-66
2020/12/24 12:11:11;;;;;;;11.88;6.22;;;5.00;96.50;;;;;;5035777;28;20087;-66
2020/12/24 12:13:38;;;;;;;13.38;5.35;;;5.00;96.40;;;;;;5036951;28;20037;-66
2020/12/24 12:16:08;;;;;;;14.10;5.75;;;5.00;96.30;;;;;;5030065;28;20029;-66
2020/12/24 12:18:35;;;;;;;10.98;5.50;;;5.00;96.00;;;;;;5017965;28;20028;-66
2020/12/24 12:21:01;;;;;;;9.68;5.78;;;5.00;95.80;;;;;;5032121;28;20125;-66
2020/12/24 12:23:27;;;;;;;12.98;5.78;;;5.00;95.90;;;;;;5025427;28;20128;-66
2020/12/24 12:25:52;;;;;;;15.05;5.25;;;5.10;95.90;;;;;;5039464;28;20074;-66
2020/12/24 12:28:18;;;;;;;11.30;5.00;;;5.10;95.80;;;;;;5037241;28;20025;-66
2020/12/24 12:30:44;;;;;;;13.65;5.80;;;5.10;95.90;;;;;;5025399;28;20108;-67
2020/12/24 12:33:09;;;;;;;14.23;6.43;;;5.10;95.50;;;;;;5042709;28;20040;-66
2020/12/24 12:35:35;;;;;;;13.48;6.05;;;5.10;95.60;;;;;;5040394;28;20021;-66
2020/12/24 12:38:01;;;;;;;12.48;6.80;;;5.10;95.30;;;;;;5029308;28;20044;-66
2020/12/24 12:40:27;;;;;;;12.82;7.03;;;5.10;95.40;;;;;;5043780;28;20072;-67
2020/12/24 12:42:53;;;;;;;13.27;7.07;;;5.10;94.70;;;;;;5041226;28;20454;-67
2020/12/24 12:45:18;;;;;;;11.50;6.25;;;5.10;95.10;;;;;;5034748;28;20071;-67
2020/12/24 12:47:44;;;;;;;11.52;5.43;;;5.20;95.30;;;;;;5025007;28;20022;-66
2020/12/24 12:50:12;;;;;;;10.88;6.30;;;5.10;94.80;;;;;;5030746;28;20059;-67
2020/12/24 12:52:37;;;;;;;13.23;5.05;;;5.10;94.80;;;;;;5030746;28;20505;-67
2020/12/24 12:55:07;;;;;;;6.95;4.10;;;5.10;94.80;;;;;;5031655;28;20037;-67
2020/12/24 12:57:36;;;;;;;10.73;4.40;;;5.00;93.70;;;;;;5022817;28;20025;-68